Cacak, Serbia
Current Conditions -  °F | °C
As of 10:00 AM on Wednesday 22 Oct 2014 (Local Time) from LYKV Reporting Station
Scattered Clouds Scattered Clouds  
Wind Chill: 17°   Ceiling: Unl
Heat Index: 17°   Visibility: 6mi
Dew Point: 12°   Wind: 7mph
Humidity: 72%   Direction: 280°W
Pressure: 29.59"   Gusts: NA
Location:  43.9°N, 20.33°E
Report Text: LYKV 220800Z 28006KT 250V320 9999 SCT033 17/12 Q1002 TEMPO32015G30KT
Loading
Personal Weather Stations






























Interactive Weather Map
Tropical Storm Tracking
New forecast layout! Learn more

10-Day Weather Forecast

Advertisements
Track Severe Weather on mobile